Time;durP1;ratioP1;P1;durP2;ratioP2;P2;SDS_P1;SDS_P2;PMS_P1;PMS_P2;Temp;Humidity;BMP_temperature;BMP_pressure;BME280_temperature;BME280_humidity;BME280_pressure;Samples;Min_cycle;Max_cycle;Signal;HPM_P1;HPM_P2
2022/12/17 13:06:38;;;;;;;68.93;33.15;;;;;;;4.77;60.15;102628.66;5030368;28;20067;-42
2022/12/17 13:09:18;;;;;;;71.00;35.00;;;;;;;4.54;60.05;102621.09;5031082;28;20030;-38
2022/12/17 13:11:46;;;;;;;66.03;34.63;;;;;;;4.72;60.22;102619.72;5030253;28;20113;-45
2022/12/17 13:14:19;;;;;;;65.35;34.47;;;;;;;4.74;59.95;102623.31;5029633;28;20120;-43
2022/12/17 13:16:52;;;;;;;66.28;34.80;;;;;;;4.80;60.07;102624.59;5031221;28;20458;-41
2022/12/17 13:19:20;;;;;;;64.05;33.33;;;;;;;4.68;59.90;102610.00;5030871;28;20474;-44
2022/12/17 13:21:45;;;;;;;65.13;33.35;;;;;;;4.71;60.16;102618.81;5031518;28;20029;-41
2022/12/17 13:24:21;;;;;;;70.72;33.10;;;;;;;4.79;60.25;102611.56;5031058;28;20432;-43
2022/12/17 13:26:47;;;;;;;65.93;33.35;;;;;;;4.92;60.35;102619.31;5031517;28;20413;-42
2022/12/17 13:29:34;;;;;;;65.55;33.45;;;;;;;4.79;60.04;102616.75;5030844;28;20018;-43
2022/12/17 13:31:59;;;;;;;64.25;33.75;;;;;;;4.80;59.78;102614.25;5029140;28;20038;-42
2022/12/17 13:34:47;;;;;;;68.13;34.83;;;;;;;4.74;59.56;102613.88;5030906;28;20029;-43
2022/12/17 13:37:31;;;;;;;67.40;34.15;;;;;;;4.98;60.10;102618.81;5030380;28;20108;-43
2022/12/17 13:40:28;;;;;;;63.13;33.92;;;;;;;4.83;60.25;102611.88;5030376;28;20063;-41
2022/12/17 13:42:54;;;;;;;64.30;33.22;;;;;;;4.90;59.70;102611.47;5034135;28;20056;-42
2022/12/17 13:45:23;;;;;;;66.05;35.00;;;;;;;4.83;59.66;102608.38;5034174;28;20072;-41
2022/12/17 13:47:56;;;;;;;66.60;32.58;;;;;;;4.85;59.80;102614.56;5033689;28;20025;-42
2022/12/17 13:50:28;;;;;;;65.90;33.70;;;;;;;4.90;59.93;102626.06;5033298;28;20420;-40
2022/12/17 13:52:53;;;;;;;60.70;32.97;;;;;;;4.84;59.98;102615.34;5033946;28;20033;-45
2022/12/17 13:55:23;;;;;;;64.72;32.38;;;;;;;4.74;59.65;102612.97;5033551;28;20216;-41
2022/12/17 13:57:49;;;;;;;67.65;32.92;;;;;;;4.69;59.18;102610.09;5033461;28;20032;-42
2022/12/17 14:00:29;;;;;;;62.80;33.35;;;;;;;4.84;59.08;102615.34;5034095;28;20033;-43
2022/12/17 14:02:55;;;;;;;66.43;32.90;;;;;;;4.84;58.95;102611.06;5034094;28;20029;-44
2022/12/17 14:05:30;;;;;;;64.68;33.47;;;;;;;4.91;59.82;102622.69;5033836;28;20033;-42
2022/12/17 14:08:01;;;;;;;63.80;33.53;;;;;;;4.82;59.38;102622.09;5037513;28;20063;-42
2022/12/17 14:10:28;;;;;;;64.75;33.78;;;;;;;4.75;59.90;102619.94;5036671;28;20037;-43
2022/12/17 14:13:14;;;;;;;66.95;34.63;;;;;;;4.76;60.30;102625.19;5036058;28;20018;-41
2022/12/17 14:15:46;;;;;;;65.00;34.47;;;;;;;4.67;60.16;102619.44;5035042;28;20056;-46
2022/12/17 14:18:17;;;;;;;68.78;33.90;;;;;;;4.50;61.15;102620.03;5035639;28;20037;-40
2022/12/17 14:20:43;;;;;;;62.90;33.78;;;;;;;4.58;59.96;102634.31;5034652;28;20488;-41
2022/12/17 14:23:25;;;;;;;66.30;34.67;;;;;;;4.65;59.77;102630.44;5034684;28;20033;-42
2022/12/17 14:25:51;;;;;;;64.90;34.03;;;;;;;4.72;60.30;102636.13;5034762;28;20025;-43
2022/12/17 14:28:31;;;;;;;72.22;35.03;;;;;;;4.55;60.74;102647.06;5034361;28;20083;-43
2022/12/17 14:31:16;;;;;;;67.95;34.13;;;;;;;4.37;60.34;102644.16;5035805;28;20413;-40
2022/12/17 14:33:42;;;;;;;;;;;;;;;4.40;59.86;102646.03;5036502;28;20504;-41
2022/12/17 14:36:15;;;;;;;59.47;31.50;;;;;;;4.37;60.31;102653.59;5035082;28;20008;-41
2022/12/17 14:38:50;;;;;;;68.25;33.70;;;;;;;4.40;60.48;102653.75;5036579;28;20150;-41
2022/12/17 14:44:01;;;;;;;67.80;34.08;;;;;;;4.35;61.16;102658.63;5034548;28;20091;-43
2022/12/17 14:46:28;;;;;;;69.93;35.10;;;;;;;4.39;60.59;102660.63;5034441;28;20045;-42
2022/12/17 14:49:02;;;;;;;68.35;36.80;;;;;;;4.28;61.17;102656.44;5034570;28;20385;-43
2022/12/17 14:51:34;;;;;;;70.75;35.42;;;;;;;4.25;61.20;102661.41;5035058;28;20025;-41
2022/12/17 14:54:27;;;;;;;71.30;37.85;;;;;;;4.17;61.82;102665.16;5034132;28;20064;-40
2022/12/17 14:56:54;;;;;;;67.75;34.88;;;;;;;4.18;62.32;102668.63;5035415;28;20478;-43
2022/12/17 14:59:30;;;;;;;70.38;37.15;;;;;;;4.14;62.27;102666.63;5034648;28;20060;-41
2022/12/17 15:01:55;;;;;;;73.45;37.45;;;;;;;4.09;61.93;102669.78;5034387;28;20025;-41
2022/12/17 15:04:21;;;;;;;73.35;37.75;;;;;;;3.98;61.90;102670.75;5035433;28;20524;-43
2022/12/17 15:06:48;;;;;;;71.22;37.22;;;;;;;3.96;62.82;102682.66;5035638;28;20029;-39
2022/12/17 15:09:13;;;;;;;73.63;37.85;;;;;;;3.88;63.03;102683.81;5035225;28;20067;-45
2022/12/17 15:11:39;;;;;;;78.90;40.85;;;;;;;3.81;62.74;102691.91;5034669;28;20029;-43
2022/12/17 15:14:04;;;;;;;75.38;38.72;;;;;;;3.80;63.02;102690.13;5036266;28;20052;-43
2022/12/17 15:16:30;;;;;;;78.22;38.67;;;;;;;3.77;62.61;102691.59;5035954;28;20047;-40
2022/12/17 15:18:55;;;;;;;76.97;38.88;;;;;;;3.58;63.64;102690.31;5034815;28;20033;-41
2022/12/17 15:21:22;;;;;;;77.20;38.50;;;;;;;3.59;63.20;102689.53;5034129;28;20107;-41
2022/12/17 15:23:48;;;;;;;83.70;39.35;;;;;;;3.64;63.32;102698.50;5033685;28;20025;-44
2022/12/17 15:26:14;;;;;;;78.57;38.58;;;;;;;3.56;63.71;102696.16;5032276;28;20398;-42
2022/12/17 15:28:40;;;;;;;76.68;38.15;;;;;;;3.42;64.32;102709.72;5031810;28;20068;-42
2022/12/17 15:31:08;;;;;;;78.40;38.92;;;;;;;3.52;63.19;102697.63;5031640;28;20036;-44
2022/12/17 15:33:33;;;;;;;78.13;38.08;;;;;;;3.44;64.19;102706.50;5055452;22;20049;-43
2022/12/17 15:35:59;;;;;;;84.60;39.53;;;;;;;3.25;64.51;102711.09;5032230;28;20033;-41
2022/12/17 15:38:24;;;;;;;76.03;37.60;;;;;;;3.43;63.93;102711.53;5032927;28;20095;-43
2022/12/17 15:40:49;;;;;;;81.57;38.63;;;;;;;3.35;64.04;102712.69;5034283;28;20084;-45
2022/12/17 15:43:14;;;;;;;81.50;37.83;;;;;;;3.13;64.33;102713.69;5035568;28;20025;-42
2022/12/17 15:45:44;;;;;;;82.40;37.80;;;;;;;3.20;64.58;102715.94;5035605;28;20032;-42
2022/12/17 15:48:12;;;;;;;77.05;36.75;;;;;;;3.24;63.75;102710.22;5036604;28;20092;-47
2022/12/17 15:50:37;;;;;;;78.95;36.05;;;;;;;3.21;64.72;102714.25;5036284;28;20026;-42
2022/12/17 15:53:03;;;;;;;79.82;36.75;;;;;;;3.09;64.15;102714.28;5035282;28;20486;-43
2022/12/17 15:55:28;;;;;;;85.47;36.53;;;;;;;3.09;64.66;102719.44;5035853;28;20021;-42
2022/12/17 15:57:54;;;;;;;85.47;36.88;;;;;;;3.00;64.32;102723.91;5035419;28;20037;-46
2022/12/17 16:00:19;;;;;;;77.70;36.08;;;;;;;3.01;64.71;102717.06;5033272;28;20482;-43
2022/12/17 16:02:47;;;;;;;82.45;36.35;;;;;;;2.83;65.41;102719.19;5032509;28;20037;-42
2022/12/17 16:05:12;;;;;;;82.45;34.92;;;;;;;3.03;64.45;102718.09;5031059;28;20025;-45
2022/12/17 16:07:38;;;;;;;78.00;36.10;;;;;;;2.97;64.24;102723.69;5031509;28;20428;-45
2022/12/17 16:10:05;;;;;;;79.85;35.97;;;;;;;2.97;64.27;102722.78;5031134;28;20052;-45
2022/12/17 16:12:30;;;;;;;82.47;36.30;;;;;;;2.88;64.40;102724.69;5030769;28;20086;-42
2022/12/17 16:14:55;;;;;;;79.38;35.13;;;;;;;2.76;65.22;102730.72;5031076;28;20029;-44
2022/12/17 16:17:21;;;;;;;81.75;35.08;;;;;;;2.75;65.24;102730.59;5030723;28;20028;-45
2022/12/17 16:19:46;;;;;;;81.32;35.53;;;;;;;2.85;65.22;102733.09;5030815;28;20068;-46
2022/12/17 16:22:11;;;;;;;82.18;35.58;;;;;;;2.60;65.38;102732.94;5030347;28;20025;-43
2022/12/17 16:24:37;;;;;;;79.55;34.33;;;;;;;2.63;65.43;102746.03;5030435;28;20040;-43
2022/12/17 16:27:02;;;;;;;85.55;35.00;;;;;;;2.42;65.67;102737.63;5030816;28;20079;-44
2022/12/17 16:29:28;;;;;;;81.90;35.22;;;;;;;2.42;66.28;102737.63;5031705;28;20030;-43
2022/12/17 16:31:53;;;;;;;86.40;36.00;;;;;;;2.49;66.36;102738.97;5033447;28;20039;-43
2022/12/17 16:34:18;;;;;;;84.00;35.17;;;;;;;2.50;65.85;102738.16;5033039;28;20060;-45
2022/12/17 16:36:44;;;;;;;85.47;34.35;;;;;;;2.57;65.43;102735.28;5031918;28;20154;-42
2022/12/17 16:39:15;;;;;;;84.75;35.28;;;;;;;2.45;65.29;102732.69;5030518;28;20029;-43
2022/12/17 16:41:41;;;;;;;80.88;34.65;;;;;;;2.31;65.97;102733.34;5030155;28;20029;-50
2022/12/17 16:44:06;;;;;;;87.40;35.38;;;;;;;2.29;66.46;102734.88;5030969;28;20033;-44
2022/12/17 16:46:34;;;;;;;85.75;34.55;;;;;;;2.34;65.88;102730.97;5030503;28;20035;-43
2022/12/17 16:49:21;;;;;;;77.80;32.38;;;;;;;2.39;65.68;102733.88;5028969;28;20470;-43
2022/12/17 16:51:50;;;;;;;84.88;33.60;;;;;;;2.40;65.72;102733.13;5030027;28;20025;-45
2022/12/17 16:54:19;;;;;;;84.20;33.13;;;;;;;2.31;65.62;102743.63;5030208;28;20028;-43
2022/12/17 16:56:45;;;;;;;89.22;34.28;;;;;;;2.19;66.33;102745.28;5030070;28;20021;-42
2022/12/17 16:59:12;;;;;;;86.25;34.70;;;;;;;2.27;65.55;102736.44;5030189;28;20030;-42
2022/12/17 17:01:39;;;;;;;83.45;34.13;;;;;;;2.15;66.08;102740.66;5029751;28;20483;-42
2022/12/17 17:04:06;;;;;;;94.95;34.38;;;;;;;2.19;66.12;102737.56;5029880;28;20168;-43
2022/12/17 17:06:36;;;;;;;87.63;33.38;;;;;;;1.84;66.40;102742.53;5029233;28;20029;-45
2022/12/17 17:09:04;;;;;;;90.63;33.30;;;;;;;1.99;66.66;102748.88;5030396;28;20087;-45
2022/12/17 17:11:30;;;;;;;94.90;34.70;;;;;;;2.10;66.33;102744.53;5029944;28;20099;-42
2022/12/17 17:13:55;;;;;;;87.05;33.08;;;;;;;2.07;66.36;102740.84;5030079;28;20470;-46
2022/12/17 17:16:23;;;;;;;86.72;32.97;;;;;;;1.81;66.83;102742.31;5033559;28;20080;-46
2022/12/17 17:18:49;;;;;;;92.80;32.97;;;;;;;1.81;67.10;102741.41;5036732;28;20071;-42
2022/12/17 17:21:17;;;;;;;95.05;34.20;;;;;;;1.72;67.84;102745.81;5036121;28;20021;-42
2022/12/17 17:23:42;;;;;;;93.80;33.70;;;;;;;1.87;67.95;102754.72;5037376;28;20034;-43
2022/12/17 17:26:09;;;;;;;91.57;33.85;;;;;;;2.03;67.26;102755.13;5037151;28;20021;-44
2022/12/17 17:28:34;;;;;;;92.68;33.10;;;;;;;2.06;66.39;102755.38;5037272;28;20104;-44
2022/12/17 17:31:01;;;;;;;98.25;34.15;;;;;;;1.99;67.72;102761.72;5038468;28;20115;-44
2022/12/17 17:33:34;;;;;;;87.70;32.10;;;;;;;2.06;66.65;102757.06;5038650;28;20048;-42
2022/12/17 17:36:08;;;;;;;94.90;32.85;;;;;;;2.03;66.43;102756.03;5039832;28;20104;-43
2022/12/17 17:38:35;;;;;;;89.83;32.63;;;;;;;1.67;67.81;102749.69;5042433;28;20048;-44
2022/12/17 17:41:01;;;;;;;88.00;33.13;;;;;;;2.01;67.77;102751.56;5042854;28;20036;-44
2022/12/17 17:43:26;;;;;;;98.65;33.88;;;;;;;1.53;69.37;102756.31;5043070;28;20021;-45
2022/12/17 17:45:52;;;;;;;96.15;34.22;;;;;;;1.93;67.92;102757.78;5041636;28;20108;-43
2022/12/17 17:48:18;;;;;;;101.32;33.20;;;;;;;2.03;67.80;102760.28;5040104;28;20028;-45
2022/12/17 17:50:43;;;;;;;94.30;32.45;;;;;;;2.06;66.93;102752.81;5037641;28;20083;-44
2022/12/17 17:53:08;;;;;;;93.32;31.55;;;;;;;1.83;68.08;102752.72;5037679;28;20393;-48
2022/12/17 17:55:34;;;;;;;97.70;33.05;;;;;;;1.94;68.09;102755.34;5036780;28;20499;-44
2022/12/17 17:58:00;;;;;;;99.93;33.03;;;;;;;1.72;68.63;102751.84;5037675;28;20025;-41
2022/12/17 18:00:26;;;;;;;99.70;33.67;;;;;;;1.76;68.56;102747.88;5037371;28;20108;-42
2022/12/17 18:02:51;;;;;;;95.93;33.28;;;;;;;1.95;67.67;102751.09;5040182;28;20119;-49
2022/12/17 18:05:16;;;;;;;95.75;33.53;;;;;;;2.01;68.04;102754.16;5045760;28;20025;-44
2022/12/17 18:07:42;;;;;;;95.53;32.75;;;;;;;1.95;67.54;102751.97;5051635;28;20028;-47
2022/12/17 18:10:07;;;;;;;99.25;33.72;;;;;;;1.98;67.44;102747.06;5041596;28;20386;-41
2022/12/17 18:15:17;;;;;;;88.22;31.30;;;;;;;1.98;67.03;102753.88;5039216;28;20039;-45
2022/12/17 18:17:44;;;;;;;90.75;31.75;;;;;;;1.85;67.58;102752.03;5038289;28;20029;-43
2022/12/17 18:20:10;;;;;;;94.45;31.27;;;;;;;1.96;67.16;102751.19;5039652;28;20024;-44
2022/12/17 18:22:36;;;;;;;101.32;31.08;;;;;;;1.73;67.50;102757.88;5038537;28;20052;-43
2022/12/17 18:25:01;;;;;;;90.15;31.60;;;;;;;1.86;66.54;102761.56;5041315;28;20040;-43
2022/12/17 18:27:27;;;;;;;92.10;31.27;;;;;;;1.79;67.20;102766.09;5042357;28;20017;-44
2022/12/17 18:29:52;;;;;;;87.55;30.98;;;;;;;1.89;67.45;102764.34;5039330;28;20047;-44
2022/12/17 18:32:17;;;;;;;88.43;30.40;;;;;;;1.79;66.91;102758.38;5035497;28;20033;-42
2022/12/17 18:34:42;;;;;;;93.65;31.67;;;;;;;1.63;67.31;102764.00;5033429;28;20466;-42
2022/12/17 18:37:08;;;;;;;86.55;29.60;;;;;;;1.84;67.09;102762.19;5033220;28;20099;-44
2022/12/17 18:39:33;;;;;;;89.88;30.02;;;;;;;1.72;67.13;102762.13;5033498;28;20019;-45
2022/12/17 18:44:42;;;;;;;89.72;30.52;;;;;;;1.56;67.13;102772.00;5033573;28;20040;-42
2022/12/17 18:47:09;;;;;;;81.20;30.35;;;;;;;1.68;67.93;102769.50;5032781;28;20022;-43
2022/12/17 18:49:35;;;;;;;89.38;30.45;;;;;;;1.81;67.13;102777.41;5032727;28;20021;-42
2022/12/17 18:52:00;;;;;;;90.22;31.33;;;;;;;1.80;67.79;102780.75;5032254;28;20401;-47
2022/12/17 18:54:27;;;;;;;87.18;30.75;;;;;;;1.92;67.49;102779.13;5033283;28;20044;-43
2022/12/17 18:56:56;;;;;;;88.07;29.80;;;;;;;1.93;66.33;102773.22;5033699;28;20033;-41
2022/12/17 18:59:23;;;;;;;93.45;31.00;;;;;;;1.99;67.21;102786.56;5032861;28;20581;-43
2022/12/17 19:01:49;;;;;;;92.32;31.10;;;;;;;1.87;67.80;102783.03;5031110;28;20497;-48
2022/12/17 19:04:16;;;;;;;92.80;30.55;;;;;;;2.03;66.63;102786.00;5032608;28;20025;-45
2022/12/17 19:06:43;;;;;;;92.95;31.77;;;;;;;2.03;67.59;102792.06;5033023;28;20080;-42
2022/12/17 19:09:17;;;;;;;88.57;29.98;;;;;;;2.09;66.72;102796.78;5031064;28;20056;-45
2022/12/17 19:11:42;;;;;;;78.55;29.50;;;;;;;1.73;67.54;102799.94;5032006;28;20033;-44
2022/12/17 19:14:08;;;;;;;88.65;30.98;;;;;;;1.97;67.43;102795.81;5032171;28;20032;-42
2022/12/17 19:16:33;;;;;;;95.45;32.50;;;;;;;2.01;67.11;102797.88;5032878;28;20033;-45
2022/12/17 19:19:01;;;;;;;97.35;31.02;;;;;;;1.82;68.36;102790.38;5031801;28;20520;-46
2022/12/17 19:21:32;;;;;;;99.72;32.58;;;;;;;1.96;66.84;102794.00;5031798;28;20036;-44
2022/12/17 19:24:00;;;;;;;90.13;31.58;;;;;;;2.13;66.56;102798.81;5032039;28;20051;-44
2022/12/17 19:26:27;;;;;;;92.93;31.98;;;;;;;2.10;67.03;102800.25;5032101;28;20076;-45
2022/12/17 19:28:54;;;;;;;90.95;30.55;;;;;;;2.01;67.14;102806.47;5031786;28;20014;-43
2022/12/17 19:31:22;;;;;;;98.07;31.90;;;;;;;2.04;66.51;102806.72;5031291;28;20427;-45
2022/12/17 19:33:48;;;;;;;94.35;31.58;;;;;;;2.05;67.07;102805.03;5031466;28;20490;-45
2022/12/17 19:36:19;;;;;;;95.70;32.33;;;;;;;2.00;66.72;102811.50;5032107;28;20025;-40
2022/12/17 19:38:45;;;;;;;87.72;30.77;;;;;;;1.76;67.19;102810.47;5032835;28;20437;-47
2022/12/17 19:41:15;;;;;;;93.60;31.60;;;;;;;1.94;67.53;102817.06;5035823;28;20225;-40
2022/12/17 19:43:42;;;;;;;96.50;31.13;;;;;;;1.94;67.37;102818.75;5033832;28;20060;-43
2022/12/17 19:46:17;;;;;;;89.38;30.85;;;;;;;2.06;66.66;102816.22;5032914;28;20037;-46
2022/12/17 19:48:43;;;;;;;93.88;31.42;;;;;;;2.05;66.32;102815.34;5032318;28;20029;-41
2022/12/17 19:51:10;;;;;;;95.93;31.75;;;;;;;1.95;66.94;102820.53;5031835;28;20524;-44
2022/12/17 19:53:37;;;;;;;94.63;29.38;;;;;;;1.97;66.61;102814.72;5031315;28;20108;-42
2022/12/17 19:56:14;;;;;;;85.07;28.88;;;;;;;2.04;66.36;102809.28;5031274;28;20022;-42
2022/12/17 19:58:40;;;;;;;87.32;29.35;;;;;;;1.87;66.75;102813.88;5031402;28;20029;-45
2022/12/17 20:01:10;;;;;;;86.18;28.05;;;;;;;1.89;67.46;102820.06;5031440;28;20481;-43
2022/12/17 20:03:37;;;;;;;87.18;28.27;;;;;;;1.98;66.44;102816.53;5031817;28;20041;-47
2022/12/17 20:06:03;;;;;;;84.63;28.50;;;;;;;1.97;66.89;102818.97;5031380;28;20029;-44
2022/12/17 20:08:29;;;;;;;79.85;27.88;;;;;;;2.00;66.23;102814.97;5031413;28;20017;-46
2022/12/17 20:10:55;;;;;;;81.20;29.15;;;;;;;1.88;67.11;102818.25;5030504;28;20033;-43
2022/12/17 20:13:20;;;;;;;87.88;29.30;;;;;;;1.99;66.33;102809.72;5030893;28;20025;-44
2022/12/17 20:15:45;;;;;;;85.07;28.20;;;;;;;1.89;66.77;102804.63;5030747;28;20032;-44
2022/12/17 20:18:11;;;;;;;90.47;28.75;;;;;;;1.93;66.38;102811.81;5031161;28;20072;-46
2022/12/17 20:20:36;;;;;;;79.13;27.88;;;;;;;1.99;66.31;102812.28;5030750;28;20021;-43
2022/12/17 20:23:01;;;;;;;80.50;27.55;;;;;;;2.00;65.97;102820.13;5033071;28;20143;-43
2022/12/17 20:25:27;;;;;;;78.90;27.30;;;;;;;2.01;65.91;102821.91;5033445;28;20436;-47
2022/12/17 20:27:52;;;;;;;81.78;27.98;;;;;;;2.04;65.58;102828.97;5032979;28;20026;-45
2022/12/17 20:30:17;;;;;;;78.45;28.17;;;;;;;1.93;66.58;102832.38;5029808;28;20559;-46
2022/12/17 20:32:43;;;;;;;76.70;27.10;;;;;;;1.85;66.37;102829.19;5030836;28;20033;-42
2022/12/17 20:35:08;;;;;;;79.82;27.48;;;;;;;1.67;67.75;102838.00;5030871;28;20024;-42
2022/12/17 20:37:34;;;;;;;79.53;26.90;;;;;;;1.98;66.28;102838.78;5030675;28;20021;-43
2022/12/17 20:39:59;;;;;;;78.22;28.02;;;;;;;1.89;65.69;102843.22;5030064;28;20120;-43
2022/12/17 20:42:24;;;;;;;76.80;26.17;;;;;;;1.93;65.91;102835.84;5030394;28;20060;-43
2022/12/17 20:44:49;;;;;;;74.30;27.30;;;;;;;1.90;65.71;102843.31;5029250;28;20500;-43
2022/12/17 20:47:15;;;;;;;76.20;27.05;;;;;;;1.93;65.72;102850.38;5030642;28;20029;-43
2022/12/17 20:49:40;;;;;;;81.85;29.17;;;;;;;1.73;65.79;102843.63;5031125;28;20029;-45
2022/12/17 20:52:05;;;;;;;77.07;28.63;;;;;;;1.68;65.75;102837.25;5031568;28;20036;-43
2022/12/17 20:54:31;;;;;;;78.50;27.90;;;;;;;1.76;65.48;102838.75;5031819;28;20099;-44
2022/12/17 20:56:56;;;;;;;74.22;27.42;;;;;;;1.67;66.01;102831.97;5030656;28;20339;-44
2022/12/17 20:59:21;;;;;;;82.05;29.17;;;;;;;1.71;65.87;102834.91;5030302;28;20030;-47
2022/12/17 21:01:47;;;;;;;76.72;27.45;;;;;;;1.81;65.55;102841.69;5030852;28;20112;-48
2022/12/17 21:04:13;;;;;;;78.80;29.10;;;;;;;1.71;66.42;102840.03;5035944;28;20038;-43
2022/12/17 21:06:41;;;;;;;83.80;29.73;;;;;;;1.57;65.74;102849.25;5035004;28;20033;-42
2022/12/17 21:09:07;;;;;;;82.53;29.05;;;;;;;1.51;66.36;102851.31;5033501;28;20024;-46
2022/12/17 21:11:34;;;;;;;79.45;28.42;;;;;;;1.45;66.42;102849.91;5031966;28;20101;-43
2022/12/17 21:14:06;;;;;;;80.25;28.80;;;;;;;1.22;67.79;102851.47;5030671;28;20072;-44
2022/12/17 21:16:32;;;;;;;86.95;30.48;;;;;;;1.30;67.42;102844.41;5031177;28;20048;-42
2022/12/17 21:18:59;;;;;;;83.47;30.45;;;;;;;1.45;66.74;102855.06;5033047;28;20445;-44
2022/12/17 21:21:28;;;;;;;88.03;29.70;;;;;;;1.34;66.46;102855.84;5037085;28;20409;-43
2022/12/17 21:23:54;;;;;;;88.00;31.08;;;;;;;1.63;66.10;102865.16;5036631;28;20478;-49
2022/12/17 21:26:25;;;;;;;88.90;30.65;;;;;;;1.29;67.10;102862.25;5034257;28;20327;-43
2022/12/17 21:28:53;;;;;;;87.40;31.25;;;;;;;1.69;65.93;102872.47;5033290;28;20049;-43
2022/12/17 21:31:22;;;;;;;85.80;31.70;;;;;;;1.56;66.26;102870.56;5030602;28;20027;-43
2022/12/17 21:33:50;;;;;;;86.60;29.50;;;;;;;1.53;65.92;102870.31;5044776;22;20580;-41
2022/12/17 21:36:17;;;;;;;80.35;29.02;;;;;;;1.59;65.75;102870.81;5030184;28;20021;-41
2022/12/17 21:38:43;;;;;;;83.80;30.50;;;;;;;1.55;65.87;102866.19;5030933;28;20060;-41
2022/12/17 21:41:11;;;;;;;83.18;29.63;;;;;;;1.47;66.30;102879.19;5030592;28;20060;-40
2022/12/17 21:43:37;;;;;;;81.82;28.02;;;;;;;1.32;66.79;102871.13;5029880;28;20033;-41
2022/12/17 21:46:04;;;;;;;79.18;27.67;;;;;;;1.34;66.83;102876.41;5029553;28;20108;-41
2022/12/17 21:48:29;;;;;;;73.85;27.08;;;;;;;1.46;66.41;102875.75;5028300;28;20505;-43
2022/12/17 21:50:55;;;;;;;73.63;26.08;;;;;;;1.50;66.00;102884.59;5029479;28;20025;-43
2022/12/17 21:53:21;;;;;;;80.50;27.67;;;;;;;1.38;66.18;102892.19;5029767;28;20474;-41
2022/12/17 21:55:47;;;;;;;76.95;26.23;;;;;;;1.35;65.91;102896.16;5029815;28;20061;-42
2022/12/17 21:58:14;;;;;;;76.15;26.65;;;;;;;1.39;65.62;102895.66;5029805;28;20033;-42
2022/12/17 22:00:40;;;;;;;77.45;25.90;;;;;;;1.20;65.87;102903.53;5029579;28;20517;-42
2022/12/17 22:03:05;;;;;;;74.80;27.27;;;;;;;1.28;65.80;102914.44;5032343;28;20068;-40
2022/12/17 22:05:31;;;;;;;78.97;27.02;;;;;;;1.21;65.72;102913.94;5033188;28;20057;-41
2022/12/17 22:07:57;;;;;;;74.22;26.30;;;;;;;1.14;65.35;102909.06;5033307;28;20026;-39
2022/12/17 22:10:23;;;;;;;75.65;27.17;;;;;;;1.07;65.76;102904.19;5032946;28;20071;-40
2022/12/17 22:15:32;;;;;;;79.40;26.45;;;;;;;0.93;66.41;102902.09;5033439;28;20053;-41
2022/12/17 22:17:57;;;;;;;80.50;26.23;;;;;;;0.85;66.69;102902.25;5032816;28;20021;-43
2022/12/17 22:20:22;;;;;;;73.53;26.08;;;;;;;0.75;66.38;102904.03;5032850;28;20533;-41
2022/12/17 22:22:48;;;;;;;76.57;25.90;;;;;;;0.77;66.76;102901.59;5032907;28;20036;-41
2022/12/17 22:25:14;;;;;;;70.30;24.45;;;;;;;0.71;67.29;102901.97;5032775;28;20119;-43
2022/12/17 22:27:41;;;;;;;81.35;26.73;;;;;;;0.78;67.02;102899.16;5033033;28;20104;-42
2022/12/17 22:32:58;;;;;;;74.78;25.05;;;;;;;0.64;67.21;102904.78;5032986;28;20532;-41
2022/12/17 22:35:24;;;;;;;77.80;25.65;;;;;;;0.56;67.26;102900.66;5032658;28;20457;-43
2022/12/17 22:37:49;;;;;;;76.63;25.92;;;;;;;0.66;67.33;102899.78;5032875;28;20067;-42
2022/12/17 22:40:15;;;;;;;71.07;24.90;;;;;;;0.22;68.07;102898.53;5032596;28;20537;-41
2022/12/17 22:45:24;;;;;;;76.45;25.73;;;;;;;0.12;68.86;102891.72;5052604;28;20404;-42
2022/12/17 22:47:49;;;;;;;72.72;25.50;;;;;;;0.55;67.35;102890.28;5052541;28;20029;-45
2022/12/17 22:50:14;;;;;;;83.50;28.13;;;;;;;0.44;67.66;102886.78;5052515;28;20029;-45
2022/12/17 22:52:40;;;;;;;76.30;26.38;;;;;;;0.71;66.77;102885.69;5052141;28;20448;-41
2022/12/17 22:55:05;;;;;;;74.35;26.85;;;;;;;0.59;67.21;102879.50;5052361;28;20116;-41
2022/12/17 22:57:31;;;;;;;76.88;25.38;;;;;;;0.79;66.64;102894.94;5052096;28;20057;-43
2022/12/17 22:59:56;;;;;;;72.75;25.42;;;;;;;0.67;66.77;102893.91;5052446;28;20336;-41
2022/12/17 23:02:22;;;;;;;82.28;26.67;;;;;;;0.66;66.72;102892.09;5052265;28;20017;-41
2022/12/17 23:04:47;;;;;;;80.30;26.05;;;;;;;0.68;66.71;102891.44;5053512;28;20044;-43
2022/12/17 23:07:12;;;;;;;73.90;25.55;;;;;;;0.76;66.51;102897.22;5056185;28;20040;-39
2022/12/17 23:09:38;;;;;;;75.88;25.27;;;;;;;0.68;66.80;102890.53;5056206;28;20116;-42
2022/12/17 23:12:49;;;;;;;73.50;25.20;;;;;;;0.36;67.60;102891.28;5054285;28;20035;-44
2022/12/17 23:14:49;;;;;;;73.50;25.05;;;;;;;0.45;68.17;102893.72;5051976;28;20036;-40
2022/12/17 23:17:14;;;;;;;77.63;25.88;;;;;;;0.74;67.31;102896.19;5057310;28;20047;-43
2022/12/17 23:19:39;;;;;;;77.88;25.60;;;;;;;0.67;67.89;102888.75;5057055;28;20021;-42
2022/12/17 23:22:05;;;;;;;79.45;26.27;;;;;;;0.51;68.32;102888.19;5057386;28;20021;-40
2022/12/17 23:24:30;;;;;;;78.35;25.23;;;;;;;0.73;67.83;102895.28;5056790;28;20017;-41
2022/12/17 23:26:55;;;;;;;82.00;26.88;;;;;;;1.05;66.87;102892.88;5057542;28;20021;-42
2022/12/17 23:29:21;;;;;;;76.72;25.65;;;;;;;0.96;66.78;102894.69;5057552;28;20032;-44
2022/12/17 23:31:46;;;;;;;78.35;26.25;;;;;;;1.06;66.98;102891.19;5055948;28;20027;-40
2022/12/17 23:34:11;;;;;;;79.25;26.50;;;;;;;0.88;68.00;102887.09;5052454;28;20056;-41
2022/12/17 23:36:37;;;;;;;77.45;25.38;;;;;;;1.00;66.87;102872.72;5053758;28;20027;-43
2022/12/17 23:39:03;;;;;;;76.43;26.77;;;;;;;0.92;66.88;102866.03;5056738;28;20032;-41
2022/12/17 23:41:29;;;;;;;77.28;27.17;;;;;;;0.97;66.61;102867.34;5055638;28;20025;-39
2022/12/17 23:43:55;;;;;;;78.05;26.05;;;;;;;1.00;66.62;102873.59;5055818;28;20552;-41
2022/12/17 23:46:23;;;;;;;84.60;26.63;;;;;;;1.04;66.26;102869.59;5054824;28;20357;-40
2022/12/17 23:48:49;;;;;;;81.97;26.30;;;;;;;0.65;68.04;102869.75;5053535;28;20024;-40
2022/12/17 23:51:16;;;;;;;81.60;26.58;;;;;;;0.64;67.87;102863.72;5054259;28;20158;-42
2022/12/17 23:53:42;;;;;;;78.68;26.63;;;;;;;0.63;67.95;102864.47;5052348;28;20025;-44
2022/12/17 23:56:23;;;;;;;82.65;26.55;;;;;;;0.50;69.07;102859.06;5052617;28;20515;-41
2022/12/17 23:58:52;;;;;;;85.85;26.75;;;;;;;0.29;69.29;102864.94;5052878;28;20032;-42
